sensor_id;sensor_type;location;lat;lon;timestamp;P1;durP1;ratioP1;P2;durP2;ratioP2
20478;SDS011;10398;52.490;13.434;2024-03-22T00:00:42;8.33;;;4.13;;
20478;SDS011;10398;52.490;13.434;2024-03-22T00:03:07;9.60;;;4.00;;
20478;SDS011;10398;52.490;13.434;2024-03-22T00:05:33;10.80;;;4.53;;
20478;SDS011;10398;52.490;13.434;2024-03-22T00:07:58;9.80;;;3.93;;
20478;SDS011;10398;52.490;13.434;2024-03-22T00:10:24;7.33;;;3.43;;
20478;SDS011;10398;52.490;13.434;2024-03-22T00:12:50;9.70;;;4.50;;
20478;SDS011;10398;52.490;13.434;2024-03-22T00:15:15;7.53;;;4.37;;
20478;SDS011;10398;52.490;13.434;2024-03-22T00:17:44;10.17;;;3.60;;
20478;SDS011;10398;52.490;13.434;2024-03-22T00:20:10;11.90;;;4.90;;
20478;SDS011;10398;52.490;13.434;2024-03-22T00:22:36;9.37;;;4.23;;
20478;SDS011;10398;52.490;13.434;2024-03-22T00:25:01;11.70;;;5.00;;
20478;SDS011;10398;52.490;13.434;2024-03-22T00:27:27;11.20;;;5.23;;
20478;SDS011;10398;52.490;13.434;2024-03-22T00:29:53;8.90;;;4.13;;
20478;SDS011;10398;52.490;13.434;2024-03-22T00:32:19;8.80;;;4.27;;
20478;SDS011;10398;52.490;13.434;2024-03-22T00:34:45;10.90;;;4.10;;
20478;SDS011;10398;52.490;13.434;2024-03-22T00:37:10;7.30;;;4.17;;
20478;SDS011;10398;52.490;13.434;2024-03-22T00:39:36;9.47;;;3.97;;
20478;SDS011;10398;52.490;13.434;2024-03-22T00:42:02;9.33;;;4.03;;
20478;SDS011;10398;52.490;13.434;2024-03-22T00:44:28;11.57;;;4.73;;
20478;SDS011;10398;52.490;13.434;2024-03-22T00:46:53;10.20;;;3.97;;
20478;SDS011;10398;52.490;13.434;2024-03-22T00:49:19;8.03;;;4.23;;
20478;SDS011;10398;52.490;13.434;2024-03-22T00:51:44;11.17;;;5.30;;
20478;SDS011;10398;52.490;13.434;2024-03-22T00:54:12;8.67;;;3.87;;
20478;SDS011;10398;52.490;13.434;2024-03-22T00:56:37;12.13;;;4.63;;
20478;SDS011;10398;52.490;13.434;2024-03-22T00:59:03;8.47;;;4.20;;
20478;SDS011;10398;52.490;13.434;2024-03-22T01:01:28;9.07;;;4.20;;
20478;SDS011;10398;52.490;13.434;2024-03-22T01:03:54;11.80;;;4.50;;
20478;SDS011;10398;52.490;13.434;2024-03-22T01:06:20;10.97;;;4.20;;
20478;SDS011;10398;52.490;13.434;2024-03-22T01:08:49;9.20;;;4.50;;
20478;SDS011;10398;52.490;13.434;2024-03-22T01:11:16;12.57;;;4.40;;
20478;SDS011;10398;52.490;13.434;2024-03-22T01:13:42;10.27;;;5.00;;
20478;SDS011;10398;52.490;13.434;2024-03-22T01:16:08;9.47;;;4.30;;
20478;SDS011;10398;52.490;13.434;2024-03-22T01:18:34;11.23;;;4.63;;
20478;SDS011;10398;52.490;13.434;2024-03-22T01:21:03;13.20;;;4.80;;
20478;SDS011;10398;52.490;13.434;2024-03-22T01:23:30;12.53;;;4.40;;
20478;SDS011;10398;52.490;13.434;2024-03-22T01:25:56;7.73;;;4.00;;
20478;SDS011;10398;52.490;13.434;2024-03-22T01:28:22;14.13;;;4.47;;
20478;SDS011;10398;52.490;13.434;2024-03-22T01:30:47;15.23;;;5.73;;
20478;SDS011;10398;52.490;13.434;2024-03-22T01:33:13;12.03;;;5.03;;
20478;SDS011;10398;52.490;13.434;2024-03-22T01:35:38;9.23;;;4.07;;
20478;SDS011;10398;52.490;13.434;2024-03-22T01:38:04;12.23;;;5.30;;
20478;SDS011;10398;52.490;13.434;2024-03-22T01:40:30;15.43;;;5.33;;
20478;SDS011;10398;52.490;13.434;2024-03-22T01:42:56;12.20;;;5.23;;
20478;SDS011;10398;52.490;13.434;2024-03-22T01:45:22;13.13;;;5.03;;
20478;SDS011;10398;52.490;13.434;2024-03-22T01:47:50;12.40;;;5.03;;
20478;SDS011;10398;52.490;13.434;2024-03-22T01:50:17;15.33;;;5.23;;
20478;SDS011;10398;52.490;13.434;2024-03-22T01:52:43;12.40;;;4.90;;
20478;SDS011;10398;52.490;13.434;2024-03-22T01:55:09;11.80;;;5.10;;
20478;SDS011;10398;52.490;13.434;2024-03-22T01:57:34;10.83;;;4.70;;
20478;SDS011;10398;52.490;13.434;2024-03-22T02:00:01;12.37;;;5.20;;
20478;SDS011;10398;52.490;13.434;2024-03-22T02:02:26;13.27;;;5.07;;
20478;SDS011;10398;52.490;13.434;2024-03-22T02:04:52;12.20;;;4.73;;
20478;SDS011;10398;52.490;13.434;2024-03-22T02:07:18;10.73;;;4.77;;
20478;SDS011;10398;52.490;13.434;2024-03-22T02:09:43;10.60;;;4.87;;
20478;SDS011;10398;52.490;13.434;2024-03-22T02:12:09;13.90;;;5.03;;
20478;SDS011;10398;52.490;13.434;2024-03-22T02:14:36;11.00;;;4.63;;
20478;SDS011;10398;52.490;13.434;2024-03-22T02:17:01;16.47;;;5.90;;
20478;SDS011;10398;52.490;13.434;2024-03-22T02:19:27;12.90;;;4.50;;
20478;SDS011;10398;52.490;13.434;2024-03-22T02:21:53;15.20;;;4.80;;
20478;SDS011;10398;52.490;13.434;2024-03-22T02:24:18;12.40;;;4.87;;
20478;SDS011;10398;52.490;13.434;2024-03-22T02:26:44;14.20;;;5.47;;
20478;SDS011;10398;52.490;13.434;2024-03-22T02:29:09;12.53;;;5.03;;
20478;SDS011;10398;52.490;13.434;2024-03-22T02:31:35;9.73;;;4.73;;
20478;SDS011;10398;52.490;13.434;2024-03-22T02:34:00;11.33;;;5.27;;
20478;SDS011;10398;52.490;13.434;2024-03-22T02:36:26;14.73;;;5.07;;
20478;SDS011;10398;52.490;13.434;2024-03-22T02:38:53;12.33;;;4.93;;
20478;SDS011;10398;52.490;13.434;2024-03-22T02:41:19;12.33;;;5.20;;
20478;SDS011;10398;52.490;13.434;2024-03-22T02:43:46;15.40;;;4.63;;
20478;SDS011;10398;52.490;13.434;2024-03-22T02:46:11;11.23;;;4.93;;
20478;SDS011;10398;52.490;13.434;2024-03-22T02:48:37;12.57;;;5.30;;
20478;SDS011;10398;52.490;13.434;2024-03-22T02:51:02;13.30;;;5.43;;
20478;SDS011;10398;52.490;13.434;2024-03-22T02:53:28;14.97;;;4.50;;
20478;SDS011;10398;52.490;13.434;2024-03-22T02:55:54;12.80;;;4.37;;
20478;SDS011;10398;52.490;13.434;2024-03-22T02:58:20;16.37;;;4.23;;
20478;SDS011;10398;52.490;13.434;2024-03-22T03:00:46;12.10;;;5.03;;
20478;SDS011;10398;52.490;13.434;2024-03-22T03:03:12;14.50;;;4.67;;
20478;SDS011;10398;52.490;13.434;2024-03-22T03:05:38;11.67;;;4.03;;
20478;SDS011;10398;52.490;13.434;2024-03-22T03:08:03;12.97;;;4.60;;
20478;SDS011;10398;52.490;13.434;2024-03-22T03:10:29;12.03;;;3.93;;
20478;SDS011;10398;52.490;13.434;2024-03-22T03:12:55;13.83;;;5.37;;
20478;SDS011;10398;52.490;13.434;2024-03-22T03:15:21;17.03;;;4.50;;
20478;SDS011;10398;52.490;13.434;2024-03-22T03:17:46;13.03;;;4.60;;
20478;SDS011;10398;52.490;13.434;2024-03-22T03:20:12;13.30;;;4.77;;
20478;SDS011;10398;52.490;13.434;2024-03-22T03:22:38;10.63;;;4.80;;
20478;SDS011;10398;52.490;13.434;2024-03-22T03:25:07;11.00;;;4.40;;
20478;SDS011;10398;52.490;13.434;2024-03-22T03:27:33;12.97;;;5.00;;
20478;SDS011;10398;52.490;13.434;2024-03-22T03:29:59;11.37;;;4.33;;
20478;SDS011;10398;52.490;13.434;2024-03-22T03:32:25;11.23;;;4.13;;
20478;SDS011;10398;52.490;13.434;2024-03-22T03:34:51;10.63;;;4.63;;
20478;SDS011;10398;52.490;13.434;2024-03-22T03:37:17;10.57;;;4.13;;
20478;SDS011;10398;52.490;13.434;2024-03-22T03:39:42;13.33;;;4.30;;
20478;SDS011;10398;52.490;13.434;2024-03-22T03:42:08;12.30;;;4.80;;
20478;SDS011;10398;52.490;13.434;2024-03-22T03:44:34;11.13;;;5.00;;
20478;SDS011;10398;52.490;13.434;2024-03-22T03:47:02;11.37;;;4.40;;
20478;SDS011;10398;52.490;13.434;2024-03-22T03:49:28;13.77;;;5.33;;
20478;SDS011;10398;52.490;13.434;2024-03-22T03:51:54;14.10;;;5.47;;
20478;SDS011;10398;52.490;13.434;2024-03-22T03:54:20;10.23;;;4.13;;
20478;SDS011;10398;52.490;13.434;2024-03-22T03:56:45;15.63;;;4.57;;
20478;SDS011;10398;52.490;13.434;2024-03-22T03:59:11;11.63;;;4.50;;
20478;SDS011;10398;52.490;13.434;2024-03-22T04:01:36;12.53;;;5.07;;
20478;SDS011;10398;52.490;13.434;2024-03-22T04:04:02;11.37;;;4.37;;
20478;SDS011;10398;52.490;13.434;2024-03-22T04:06:28;11.70;;;4.23;;
20478;SDS011;10398;52.490;13.434;2024-03-22T04:08:54;16.90;;;5.10;;
20478;SDS011;10398;52.490;13.434;2024-03-22T04:11:20;10.53;;;4.33;;
20478;SDS011;10398;52.490;13.434;2024-03-22T04:13:45;12.97;;;4.47;;
20478;SDS011;10398;52.490;13.434;2024-03-22T04:16:12;10.30;;;4.00;;
20478;SDS011;10398;52.490;13.434;2024-03-22T04:18:38;11.33;;;4.43;;
20478;SDS011;10398;52.490;13.434;2024-03-22T04:21:04;11.90;;;4.23;;
20478;SDS011;10398;52.490;13.434;2024-03-22T04:23:30;9.90;;;4.20;;
20478;SDS011;10398;52.490;13.434;2024-03-22T04:25:56;13.07;;;4.73;;
20478;SDS011;10398;52.490;13.434;2024-03-22T04:28:24;11.10;;;4.27;;
20478;SDS011;10398;52.490;13.434;2024-03-22T04:33:29;9.63;;;5.00;;
20478;SDS011;10398;52.490;13.434;2024-03-22T04:35:56;12.50;;;5.23;;
20478;SDS011;10398;52.490;13.434;2024-03-22T04:38:23;12.73;;;4.17;;
20478;SDS011;10398;52.490;13.434;2024-03-22T04:40:49;13.20;;;4.33;;
20478;SDS011;10398;52.490;13.434;2024-03-22T04:43:15;13.63;;;4.63;;
20478;SDS011;10398;52.490;13.434;2024-03-22T04:45:42;11.20;;;4.67;;
20478;SDS011;10398;52.490;13.434;2024-03-22T04:48:08;12.43;;;4.37;;
20478;SDS011;10398;52.490;13.434;2024-03-22T04:50:34;12.27;;;3.97;;
20478;SDS011;10398;52.490;13.434;2024-03-22T04:53:00;11.73;;;4.60;;
20478;SDS011;10398;52.490;13.434;2024-03-22T04:55:26;8.90;;;3.70;;
20478;SDS011;10398;52.490;13.434;2024-03-22T04:57:52;10.90;;;4.00;;
20478;SDS011;10398;52.490;13.434;2024-03-22T05:00:18;12.13;;;4.53;;
20478;SDS011;10398;52.490;13.434;2024-03-22T05:02:43;11.53;;;5.13;;
20478;SDS011;10398;52.490;13.434;2024-03-22T05:05:09;11.23;;;4.10;;
20478;SDS011;10398;52.490;13.434;2024-03-22T05:07:35;9.57;;;4.10;;
20478;SDS011;10398;52.490;13.434;2024-03-22T05:10:01;10.00;;;3.67;;
20478;SDS011;10398;52.490;13.434;2024-03-22T05:12:27;14.63;;;5.23;;
20478;SDS011;10398;52.490;13.434;2024-03-22T05:14:52;12.20;;;4.80;;
20478;SDS011;10398;52.490;13.434;2024-03-22T05:17:18;15.20;;;4.47;;
20478;SDS011;10398;52.490;13.434;2024-03-22T05:19:44;12.93;;;5.00;;
20478;SDS011;10398;52.490;13.434;2024-03-22T05:22:09;13.27;;;4.63;;
20478;SDS011;10398;52.490;13.434;2024-03-22T05:24:35;18.63;;;4.03;;
20478;SDS011;10398;52.490;13.434;2024-03-22T05:27:01;10.00;;;4.00;;
20478;SDS011;10398;52.490;13.434;2024-03-22T05:29:26;10.90;;;4.60;;
20478;SDS011;10398;52.490;13.434;2024-03-22T05:31:52;15.47;;;5.07;;
20478;SDS011;10398;52.490;13.434;2024-03-22T05:34:18;18.60;;;6.00;;
20478;SDS011;10398;52.490;13.434;2024-03-22T05:36:44;14.50;;;5.13;;
20478;SDS011;10398;52.490;13.434;2024-03-22T05:39:10;15.67;;;5.03;;
20478;SDS011;10398;52.490;13.434;2024-03-22T05:41:37;12.10;;;5.23;;
20478;SDS011;10398;52.490;13.434;2024-03-22T05:44:03;12.53;;;4.50;;
20478;SDS011;10398;52.490;13.434;2024-03-22T05:46:29;17.70;;;5.53;;
20478;SDS011;10398;52.490;13.434;2024-03-22T05:48:55;16.80;;;5.33;;
20478;SDS011;10398;52.490;13.434;2024-03-22T05:51:22;12.50;;;4.30;;
20478;SDS011;10398;52.490;13.434;2024-03-22T05:53:47;13.97;;;5.30;;
20478;SDS011;10398;52.490;13.434;2024-03-22T05:56:13;13.20;;;5.20;;
20478;SDS011;10398;52.490;13.434;2024-03-22T05:58:39;16.07;;;4.97;;
20478;SDS011;10398;52.490;13.434;2024-03-22T06:01:05;13.70;;;5.43;;
20478;SDS011;10398;52.490;13.434;2024-03-22T06:03:31;12.23;;;5.27;;
20478;SDS011;10398;52.490;13.434;2024-03-22T06:05:57;12.33;;;5.00;;
20478;SDS011;10398;52.490;13.434;2024-03-22T06:08:27;15.40;;;5.67;;
20478;SDS011;10398;52.490;13.434;2024-03-22T06:10:54;12.47;;;4.57;;
20478;SDS011;10398;52.490;13.434;2024-03-22T06:13:21;18.57;;;5.17;;
20478;SDS011;10398;52.490;13.434;2024-03-22T06:15:48;12.13;;;5.27;;
20478;SDS011;10398;52.490;13.434;2024-03-22T06:18:14;13.80;;;5.00;;
20478;SDS011;10398;52.490;13.434;2024-03-22T06:20:40;11.80;;;4.27;;
20478;SDS011;10398;52.490;13.434;2024-03-22T06:23:07;12.37;;;4.40;;
20478;SDS011;10398;52.490;13.434;2024-03-22T06:25:33;10.70;;;4.37;;
20478;SDS011;10398;52.490;13.434;2024-03-22T06:27:59;15.80;;;4.97;;
20478;SDS011;10398;52.490;13.434;2024-03-22T06:30:24;12.93;;;5.33;;
20478;SDS011;10398;52.490;13.434;2024-03-22T06:32:50;16.77;;;5.63;;
20478;SDS011;10398;52.490;13.434;2024-03-22T06:35:15;12.27;;;4.90;;
20478;SDS011;10398;52.490;13.434;2024-03-22T06:37:41;11.07;;;4.27;;
20478;SDS011;10398;52.490;13.434;2024-03-22T06:40:07;12.23;;;4.67;;
20478;SDS011;10398;52.490;13.434;2024-03-22T06:42:34;22.53;;;7.43;;
20478;SDS011;10398;52.490;13.434;2024-03-22T06:45:00;15.10;;;5.67;;
20478;SDS011;10398;52.490;13.434;2024-03-22T06:47:27;10.00;;;4.50;;
20478;SDS011;10398;52.490;13.434;2024-03-22T06:49:53;12.17;;;4.80;;
20478;SDS011;10398;52.490;13.434;2024-03-22T06:52:18;12.20;;;4.77;;
20478;SDS011;10398;52.490;13.434;2024-03-22T06:54:45;18.77;;;5.47;;
20478;SDS011;10398;52.490;13.434;2024-03-22T06:57:10;13.13;;;5.17;;
20478;SDS011;10398;52.490;13.434;2024-03-22T06:59:36;16.90;;;5.43;;
20478;SDS011;10398;52.490;13.434;2024-03-22T07:02:02;16.03;;;5.27;;
20478;SDS011;10398;52.490;13.434;2024-03-22T07:04:27;15.20;;;5.60;;
20478;SDS011;10398;52.490;13.434;2024-03-22T07:06:53;16.63;;;5.43;;
20478;SDS011;10398;52.490;13.434;2024-03-22T07:09:19;18.47;;;6.60;;
20478;SDS011;10398;52.490;13.434;2024-03-22T07:11:44;15.60;;;5.03;;
20478;SDS011;10398;52.490;13.434;2024-03-22T07:14:10;16.00;;;5.30;;
20478;SDS011;10398;52.490;13.434;2024-03-22T07:16:36;11.43;;;5.07;;
20478;SDS011;10398;52.490;13.434;2024-03-22T07:19:02;13.20;;;4.97;;
20478;SDS011;10398;52.490;13.434;2024-03-22T07:21:28;17.27;;;5.33;;
20478;SDS011;10398;52.490;13.434;2024-03-22T07:23:54;11.93;;;4.83;;
20478;SDS011;10398;52.490;13.434;2024-03-22T07:26:20;15.30;;;6.03;;
20478;SDS011;10398;52.490;13.434;2024-03-22T07:28:46;17.00;;;5.53;;
20478;SDS011;10398;52.490;13.434;2024-03-22T07:31:11;14.73;;;5.97;;
20478;SDS011;10398;52.490;13.434;2024-03-22T07:33:37;17.30;;;5.70;;
20478;SDS011;10398;52.490;13.434;2024-03-22T07:36:04;12.83;;;5.60;;
20478;SDS011;10398;52.490;13.434;2024-03-22T07:38:30;15.27;;;5.90;;
20478;SDS011;10398;52.490;13.434;2024-03-22T07:40:56;16.40;;;6.10;;
20478;SDS011;10398;52.490;13.434;2024-03-22T07:43:22;25.67;;;8.27;;
20478;SDS011;10398;52.490;13.434;2024-03-22T07:45:47;14.10;;;6.70;;
20478;SDS011;10398;52.490;13.434;2024-03-22T07:48:13;14.97;;;6.00;;
20478;SDS011;10398;52.490;13.434;2024-03-22T07:50:39;14.63;;;5.93;;
20478;SDS011;10398;52.490;13.434;2024-03-22T07:53:05;22.90;;;6.67;;
20478;SDS011;10398;52.490;13.434;2024-03-22T07:55:30;24.47;;;7.70;;
20478;SDS011;10398;52.490;13.434;2024-03-22T07:57:56;16.13;;;6.13;;
20478;SDS011;10398;52.490;13.434;2024-03-22T08:00:22;23.30;;;6.80;;
20478;SDS011;10398;52.490;13.434;2024-03-22T08:02:50;13.77;;;6.30;;
20478;SDS011;10398;52.490;13.434;2024-03-22T08:05:16;16.77;;;6.27;;
20478;SDS011;10398;52.490;13.434;2024-03-22T08:07:42;20.13;;;6.97;;
20478;SDS011;10398;52.490;13.434;2024-03-22T08:10:08;20.03;;;6.80;;
20478;SDS011;10398;52.490;13.434;2024-03-22T08:12:34;12.63;;;5.67;;
20478;SDS011;10398;52.490;13.434;2024-03-22T08:15:00;16.90;;;6.57;;
20478;SDS011;10398;52.490;13.434;2024-03-22T08:17:25;17.03;;;6.70;;
20478;SDS011;10398;52.490;13.434;2024-03-22T08:19:51;17.27;;;6.23;;
20478;SDS011;10398;52.490;13.434;2024-03-22T08:22:17;16.87;;;6.60;;
20478;SDS011;10398;52.490;13.434;2024-03-22T08:24:42;20.40;;;7.00;;
20478;SDS011;10398;52.490;13.434;2024-03-22T08:27:08;15.23;;;5.77;;
20478;SDS011;10398;52.490;13.434;2024-03-22T08:29:33;21.90;;;7.07;;
20478;SDS011;10398;52.490;13.434;2024-03-22T08:31:59;17.57;;;6.07;;
20478;SDS011;10398;52.490;13.434;2024-03-22T08:34:27;15.33;;;6.30;;
20478;SDS011;10398;52.490;13.434;2024-03-22T08:36:53;17.60;;;6.23;;
20478;SDS011;10398;52.490;13.434;2024-03-22T08:39:19;20.33;;;8.00;;
20478;SDS011;10398;52.490;13.434;2024-03-22T08:41:45;22.77;;;6.90;;
20478;SDS011;10398;52.490;13.434;2024-03-22T08:44:11;20.13;;;7.10;;
20478;SDS011;10398;52.490;13.434;2024-03-22T08:46:36;16.17;;;6.13;;
20478;SDS011;10398;52.490;13.434;2024-03-22T08:49:02;18.93;;;7.07;;
20478;SDS011;10398;52.490;13.434;2024-03-22T08:51:28;28.57;;;9.60;;
20478;SDS011;10398;52.490;13.434;2024-03-22T08:53:54;25.97;;;8.77;;
20478;SDS011;10398;52.490;13.434;2024-03-22T08:56:20;24.23;;;8.50;;
20478;SDS011;10398;52.490;13.434;2024-03-22T08:58:45;19.63;;;7.10;;
20478;SDS011;10398;52.490;13.434;2024-03-22T09:01:11;19.43;;;6.67;;
20478;SDS011;10398;52.490;13.434;2024-03-22T09:03:37;21.53;;;8.20;;
20478;SDS011;10398;52.490;13.434;2024-03-22T09:06:02;23.93;;;7.77;;
20478;SDS011;10398;52.490;13.434;2024-03-22T09:08:29;19.43;;;7.87;;
20478;SDS011;10398;52.490;13.434;2024-03-22T09:10:54;17.87;;;7.53;;
20478;SDS011;10398;52.490;13.434;2024-03-22T09:13:20;16.97;;;6.70;;
20478;SDS011;10398;52.490;13.434;2024-03-22T09:15:46;16.40;;;6.23;;
20478;SDS011;10398;52.490;13.434;2024-03-22T09:18:12;23.77;;;6.77;;
20478;SDS011;10398;52.490;13.434;2024-03-22T09:20:38;20.63;;;7.13;;
20478;SDS011;10398;52.490;13.434;2024-03-22T09:23:03;19.57;;;6.90;;
20478;SDS011;10398;52.490;13.434;2024-03-22T09:25:29;17.97;;;6.70;;
20478;SDS011;10398;52.490;13.434;2024-03-22T09:27:55;19.73;;;7.73;;
20478;SDS011;10398;52.490;13.434;2024-03-22T09:30:20;23.67;;;8.80;;
20478;SDS011;10398;52.490;13.434;2024-03-22T09:32:47;19.63;;;7.43;;
20478;SDS011;10398;52.490;13.434;2024-03-22T09:35:12;16.33;;;7.13;;
20478;SDS011;10398;52.490;13.434;2024-03-22T09:37:42;16.37;;;7.40;;
20478;SDS011;10398;52.490;13.434;2024-03-22T09:40:08;18.60;;;6.73;;
20478;SDS011;10398;52.490;13.434;2024-03-22T09:42:36;20.23;;;6.67;;
20478;SDS011;10398;52.490;13.434;2024-03-22T09:45:04;16.23;;;6.57;;
20478;SDS011;10398;52.490;13.434;2024-03-22T09:47:33;15.23;;;6.20;;
20478;SDS011;10398;52.490;13.434;2024-03-22T09:50:00;18.77;;;6.27;;
20478;SDS011;10398;52.490;13.434;2024-03-22T09:52:28;15.37;;;6.07;;
20478;SDS011;10398;52.490;13.434;2024-03-22T09:54:55;18.83;;;6.73;;
20478;SDS011;10398;52.490;13.434;2024-03-22T09:57:20;15.37;;;6.77;;
20478;SDS011;10398;52.490;13.434;2024-03-22T09:59:47;12.47;;;5.77;;
20478;SDS011;10398;52.490;13.434;2024-03-22T10:02:13;14.93;;;6.70;;
20478;SDS011;10398;52.490;13.434;2024-03-22T10:04:40;19.13;;;6.67;;
20478;SDS011;10398;52.490;13.434;2024-03-22T10:07:06;17.90;;;6.97;;
20478;SDS011;10398;52.490;13.434;2024-03-22T10:09:35;16.20;;;7.30;;
20478;SDS011;10398;52.490;13.434;2024-03-22T10:12:02;18.47;;;6.63;;
20478;SDS011;10398;52.490;13.434;2024-03-22T10:14:28;21.07;;;6.97;;
20478;SDS011;10398;52.490;13.434;2024-03-22T10:16:55;12.87;;;6.40;;
20478;SDS011;10398;52.490;13.434;2024-03-22T10:19:21;14.10;;;5.67;;
20478;SDS011;10398;52.490;13.434;2024-03-22T10:21:48;14.23;;;6.00;;
20478;SDS011;10398;52.490;13.434;2024-03-22T10:24:28;15.33;;;5.53;;
20478;SDS011;10398;52.490;13.434;2024-03-22T10:26:54;14.70;;;5.97;;
20478;SDS011;10398;52.490;13.434;2024-03-22T10:29:20;22.53;;;6.30;;
20478;SDS011;10398;52.490;13.434;2024-03-22T10:31:47;27.63;;;9.47;;
20478;SDS011;10398;52.490;13.434;2024-03-22T10:34:24;26.30;;;9.40;;
20478;SDS011;10398;52.490;13.434;2024-03-22T10:36:50;16.37;;;6.20;;
20478;SDS011;10398;52.490;13.434;2024-03-22T10:39:18;13.33;;;6.80;;
20478;SDS011;10398;52.490;13.434;2024-03-22T10:41:47;21.60;;;8.30;;
20478;SDS011;10398;52.490;13.434;2024-03-22T10:44:14;18.40;;;7.70;;
20478;SDS011;10398;52.490;13.434;2024-03-22T10:46:46;18.10;;;7.40;;
20478;SDS011;10398;52.490;13.434;2024-03-22T10:49:15;19.40;;;5.97;;
20478;SDS011;10398;52.490;13.434;2024-03-22T10:51:44;15.20;;;6.27;;
20478;SDS011;10398;52.490;13.434;2024-03-22T10:54:20;12.73;;;5.27;;
20478;SDS011;10398;52.490;13.434;2024-03-22T10:56:49;18.93;;;6.77;;
20478;SDS011;10398;52.490;13.434;2024-03-22T10:59:19;17.87;;;7.00;;
20478;SDS011;10398;52.490;13.434;2024-03-22T11:01:47;16.10;;;6.10;;
20478;SDS011;10398;52.490;13.434;2024-03-22T11:04:15;17.20;;;6.77;;
20478;SDS011;10398;52.490;13.434;2024-03-22T11:06:48;13.87;;;6.30;;
20478;SDS011;10398;52.490;13.434;2024-03-22T11:09:21;13.70;;;6.60;;
20478;SDS011;10398;52.490;13.434;2024-03-22T11:11:48;20.23;;;7.23;;
20478;SDS011;10398;52.490;13.434;2024-03-22T11:14:14;17.10;;;6.93;;
20478;SDS011;10398;52.490;13.434;2024-03-22T11:16:42;16.40;;;6.77;;
20478;SDS011;10398;52.490;13.434;2024-03-22T11:19:09;12.83;;;5.83;;
20478;SDS011;10398;52.490;13.434;2024-03-22T11:21:35;14.07;;;5.83;;
20478;SDS011;10398;52.490;13.434;2024-03-22T11:24:01;14.97;;;6.10;;
20478;SDS011;10398;52.490;13.434;2024-03-22T11:26:27;18.80;;;6.90;;
20478;SDS011;10398;52.490;13.434;2024-03-22T11:28:52;19.90;;;7.70;;
20478;SDS011;10398;52.490;13.434;2024-03-22T11:31:18;16.40;;;6.33;;
20478;SDS011;10398;52.490;13.434;2024-03-22T11:33:46;15.60;;;6.43;;
20478;SDS011;10398;52.490;13.434;2024-03-22T11:36:13;15.57;;;5.87;;
20478;SDS011;10398;52.490;13.434;2024-03-22T11:38:39;24.97;;;7.67;;
20478;SDS011;10398;52.490;13.434;2024-03-22T11:41:04;22.77;;;6.70;;
20478;SDS011;10398;52.490;13.434;2024-03-22T11:43:31;15.70;;;6.57;;
20478;SDS011;10398;52.490;13.434;2024-03-22T11:45:57;17.40;;;6.40;;
20478;SDS011;10398;52.490;13.434;2024-03-22T11:48:23;15.70;;;5.87;;
20478;SDS011;10398;52.490;13.434;2024-03-22T11:50:49;17.33;;;5.70;;
20478;SDS011;10398;52.490;13.434;2024-03-22T11:53:15;20.93;;;6.40;;
20478;SDS011;10398;52.490;13.434;2024-03-22T11:55:42;13.53;;;6.03;;
20478;SDS011;10398;52.490;13.434;2024-03-22T11:58:10;14.53;;;5.40;;
20478;SDS011;10398;52.490;13.434;2024-03-22T12:00:36;11.23;;;5.27;;
20478;SDS011;10398;52.490;13.434;2024-03-22T12:03:05;18.20;;;5.90;;
20478;SDS011;10398;52.490;13.434;2024-03-22T12:05:31;11.80;;;5.10;;
20478;SDS011;10398;52.490;13.434;2024-03-22T12:07:57;16.57;;;5.80;;
20478;SDS011;10398;52.490;13.434;2024-03-22T12:10:23;18.53;;;6.43;;
20478;SDS011;10398;52.490;13.434;2024-03-22T12:12:48;16.53;;;5.90;;
20478;SDS011;10398;52.490;13.434;2024-03-22T12:15:15;12.17;;;6.00;;
20478;SDS011;10398;52.490;13.434;2024-03-22T12:17:40;16.27;;;6.57;;
20478;SDS011;10398;52.490;13.434;2024-03-22T12:20:08;17.23;;;5.60;;
20478;SDS011;10398;52.490;13.434;2024-03-22T12:22:34;18.03;;;6.13;;
20478;SDS011;10398;52.490;13.434;2024-03-22T12:25:00;14.03;;;5.43;;
20478;SDS011;10398;52.490;13.434;2024-03-22T12:27:26;14.70;;;6.00;;
20478;SDS011;10398;52.490;13.434;2024-03-22T12:29:52;14.67;;;6.17;;
20478;SDS011;10398;52.490;13.434;2024-03-22T12:32:18;16.60;;;6.43;;
20478;SDS011;10398;52.490;13.434;2024-03-22T12:34:44;16.07;;;5.97;;
20478;SDS011;10398;52.490;13.434;2024-03-22T12:37:09;15.67;;;6.37;;
20478;SDS011;10398;52.490;13.434;2024-03-22T12:39:35;14.70;;;5.70;;
20478;SDS011;10398;52.490;13.434;2024-03-22T12:42:02;16.10;;;6.47;;
20478;SDS011;10398;52.490;13.434;2024-03-22T12:44:28;16.53;;;6.47;;
20478;SDS011;10398;52.490;13.434;2024-03-22T12:46:54;19.60;;;6.47;;
20478;SDS011;10398;52.490;13.434;2024-03-22T12:49:20;16.23;;;6.43;;
20478;SDS011;10398;52.490;13.434;2024-03-22T12:51:45;13.57;;;5.43;;
20478;SDS011;10398;52.490;13.434;2024-03-22T12:54:11;14.87;;;6.10;;
20478;SDS011;10398;52.490;13.434;2024-03-22T12:56:39;17.50;;;5.33;;
20478;SDS011;10398;52.490;13.434;2024-03-22T12:59:05;15.83;;;5.97;;
20478;SDS011;10398;52.490;13.434;2024-03-22T13:01:32;16.77;;;6.60;;
20478;SDS011;10398;52.490;13.434;2024-03-22T13:03:58;16.53;;;6.80;;
20478;SDS011;10398;52.490;13.434;2024-03-22T13:06:23;17.43;;;6.33;;
20478;SDS011;10398;52.490;13.434;2024-03-22T13:08:49;17.10;;;6.47;;
20478;SDS011;10398;52.490;13.434;2024-03-22T13:11:15;16.53;;;6.37;;
20478;SDS011;10398;52.490;13.434;2024-03-22T13:13:42;18.83;;;6.63;;
20478;SDS011;10398;52.490;13.434;2024-03-22T13:16:08;17.77;;;6.30;;
20478;SDS011;10398;52.490;13.434;2024-03-22T13:18:36;17.47;;;5.90;;
20478;SDS011;10398;52.490;13.434;2024-03-22T13:21:02;13.70;;;4.43;;
20478;SDS011;10398;52.490;13.434;2024-03-22T13:23:30;14.30;;;5.07;;
20478;SDS011;10398;52.490;13.434;2024-03-22T13:25:55;17.03;;;5.10;;
20478;SDS011;10398;52.490;13.434;2024-03-22T13:28:23;16.43;;;5.17;;
20478;SDS011;10398;52.490;13.434;2024-03-22T13:30:58;10.27;;;4.50;;
20478;SDS011;10398;52.490;13.434;2024-03-22T13:33:28;13.40;;;4.90;;
20478;SDS011;10398;52.490;13.434;2024-03-22T13:35:56;13.17;;;5.10;;
20478;SDS011;10398;52.490;13.434;2024-03-22T13:38:22;11.50;;;4.43;;
20478;SDS011;10398;52.490;13.434;2024-03-22T13:40:57;16.80;;;4.80;;
20478;SDS011;10398;52.490;13.434;2024-03-22T13:43:25;12.13;;;5.17;;
20478;SDS011;10398;52.490;13.434;2024-03-22T13:45:53;14.00;;;4.57;;
20478;SDS011;10398;52.490;13.434;2024-03-22T13:48:20;11.13;;;4.27;;
20478;SDS011;10398;52.490;13.434;2024-03-22T13:50:50;11.07;;;4.50;;
20478;SDS011;10398;52.490;13.434;2024-03-22T13:53:16;10.43;;;4.93;;
20478;SDS011;10398;52.490;13.434;2024-03-22T13:55:42;11.90;;;4.30;;
20478;SDS011;10398;52.490;13.434;2024-03-22T13:58:08;18.27;;;6.43;;
20478;SDS011;10398;52.490;13.434;2024-03-22T14:00:34;18.93;;;6.50;;
20478;SDS011;10398;52.490;13.434;2024-03-22T14:03:01;12.53;;;5.17;;
20478;SDS011;10398;52.490;13.434;2024-03-22T14:05:27;12.50;;;4.93;;
20478;SDS011;10398;52.490;13.434;2024-03-22T14:07:52;13.77;;;5.83;;
20478;SDS011;10398;52.490;13.434;2024-03-22T14:10:18;17.30;;;5.80;;
20478;SDS011;10398;52.490;13.434;2024-03-22T14:12:45;20.27;;;7.53;;
20478;SDS011;10398;52.490;13.434;2024-03-22T14:15:12;16.70;;;6.57;;
20478;SDS011;10398;52.490;13.434;2024-03-22T14:17:38;24.70;;;6.30;;
20478;SDS011;10398;52.490;13.434;2024-03-22T14:20:03;24.17;;;8.03;;